Time;durP1;ratioP1;P1;durP2;ratioP2;P2;SDS_P1;SDS_P2;PMS_P1;PMS_P2;Temp;Humidity;BMP_temperature;BMP_pressure;BME280_temperature;BME280_humidity;BME280_pressure;Samples;Min_cycle;Max_cycle;Signal;HPM_P1;HPM_P2
2023/01/16 00:03:13;;;;;;;50.47;17.97;;;;;;;2.71;100.00;100625.69;31463166;28;20075;-79
2023/01/16 00:18:15;;;;;;;67.97;24.93;;;;;;;2.67;100.00;100622.91;31462543;28;20056;-79
2023/01/16 00:33:18;;;;;;;62.33;23.67;;;;;;;2.61;100.00;100607.47;31464554;28;20045;-80
2023/01/16 00:48:20;;;;;;;51.47;19.67;;;;;;;2.52;100.00;100599.66;31492491;28;20060;-78
2023/01/16 01:03:22;;;;;;;69.70;20.43;;;;;;;2.66;100.00;100591.88;31486977;28;20053;-79
2023/01/16 01:18:24;;;;;;;51.90;19.37;;;;;;;2.29;100.00;100575.44;31495366;28;20486;-79
2023/01/16 01:33:25;;;;;;;65.40;24.17;;;;;;;2.03;100.00;100556.50;31491208;28;20094;-79
2023/01/16 01:48:39;;;;;;;88.63;27.37;;;;;;;2.09;100.00;100528.31;31481582;28;20456;-80
2023/01/16 02:03:51;;;;;;;80.60;27.57;;;;;;;2.05;100.00;100527.47;31479205;28;20106;-79
2023/01/16 02:34:45;;;;;;;79.10;18.50;;;;;;;2.04;100.00;100507.16;31476393;28;20044;-79
2023/01/16 02:49:50;;;;;;;89.87;16.50;;;;;;;2.00;100.00;100498.28;31472689;28;20052;-80
2023/01/16 03:04:52;;;;;;;56.17;15.53;;;;;;;1.90;100.00;100498.81;31483653;28;20041;-78
2023/01/16 03:20:07;;;;;;;63.10;14.93;;;;;;;1.76;100.00;100504.63;31477467;28;20060;-79
2023/01/16 03:35:52;;;;;;;29.93;10.90;;;;;;;1.63;100.00;100517.38;31469426;28;20074;-77
2023/01/16 03:51:01;;;;;;;41.60;12.50;;;;;;;1.41;100.00;100533.28;31433673;28;20052;-78
2023/01/16 04:06:12;;;;;;;36.50;13.23;;;;;;;1.64;100.00;100545.69;31466677;28;20098;-78
2023/01/16 04:21:14;;;;;;;54.87;14.07;;;;;;;1.80;100.00;100547.56;31452688;28;20588;-80
2023/01/16 04:36:17;;;;;;;43.97;14.40;;;;;;;1.97;100.00;100547.16;31448068;28;20075;-79
2023/01/16 04:51:19;;;;;;;52.83;14.30;;;;;;;1.91;100.00;100543.19;31457589;28;20094;-78
2023/01/16 05:06:21;;;;;;;62.43;11.80;;;;;;;1.29;100.00;100524.19;31440165;28;20449;-77
2023/01/16 05:21:23;;;;;;;60.97;14.17;;;;;;;1.26;100.00;100503.47;31466444;28;20079;-79
2023/01/16 05:36:25;;;;;;;48.53;14.43;;;;;;;1.32;100.00;100512.03;31488093;28;20094;-78
2023/01/16 05:51:27;;;;;;;58.73;15.20;;;;;;;1.35;100.00;100496.06;31426944;28;20231;-78
2023/01/16 06:06:29;;;;;;;58.73;12.90;;;;;;;1.13;100.00;100493.22;31482252;28;20509;-80
2023/01/16 06:21:31;;;;;;;41.97;13.60;;;;;;;1.24;100.00;100489.69;31474422;28;20053;-77
2023/01/16 06:36:33;;;;;;;46.83;13.73;;;;;;;1.41;100.00;100461.03;31451067;28;20117;-79
2023/01/16 06:51:35;;;;;;;37.13;13.20;;;;;;;1.54;100.00;100471.28;31463433;28;20041;-78
2023/01/16 07:06:39;;;;;;;39.43;13.50;;;;;;;1.76;100.00;100477.09;31471230;28;20475;-76
2023/01/16 11:38:46;;;;;;;24.97;11.13;;;;;;;2.72;100.00;100259.97;31523710;27;20818;-76
2023/01/16 11:53:50;;;;;;;24.57;9.20;;;;;;;2.90;100.00;100330.69;31551140;28;20137;-76
2023/01/16 12:09:09;;;;;;;21.77;10.40;;;;;;;3.02;100.00;100349.28;31540372;28;20523;-81
2023/01/16 12:24:34;;;;;;;24.73;10.10;;;;;;;2.97;100.00;100363.00;31546459;28;20140;-78
2023/01/16 12:39:48;;;;;;;19.67;8.47;;;;;;;2.81;100.00;100375.78;31485576;28;20049;-85
2023/01/16 12:54:58;;;;;;;26.67;9.63;;;;;;;2.94;100.00;100379.81;31468057;28;20090;-80
2023/01/16 13:25:42;;;;;;;23.40;8.70;;;;;;;2.82;100.00;100388.06;31466177;28;20121;-78
2023/01/16 13:41:11;;;;;;;18.20;9.23;;;;;;;2.70;100.00;100378.28;31821014;22;20050;-80
2023/01/16 13:56:20;;;;;;;21.77;8.20;;;;;;;2.66;100.00;100368.63;31123067;28;20053;-85
2023/01/16 14:11:28;;;;;;;17.20;7.70;;;;;;;2.60;100.00;100348.63;31118302;28;21580;-81
2023/01/16 14:26:49;;;;;;;15.10;7.53;;;;;;;2.12;100.00;100344.72;31107724;28;20056;-87
2023/01/16 14:57:15;;;;;;;14.00;7.20;;;;;;;2.30;100.00;100327.84;31117431;28;20042;-78
2023/01/16 15:12:18;;;;;;;15.57;7.77;;;;;;;2.39;100.00;100332.94;31084813;28;20046;-79
2023/01/16 15:27:26;;;;;;;20.63;8.30;;;;;;;2.46;100.00;100353.72;31134474;28;20084;-81
2023/01/16 15:57:57;;;;;;;12.40;7.07;;;;;;;2.58;100.00;100362.38;31079814;28;20599;-79
2023/01/16 19:33:38;;;;;;;13.53;6.07;;;;;;;3.37;100.00;100262.34;31657547;27;21038;-76
2023/01/16 19:48:40;;;;;;;17.33;6.93;;;;;;;3.27;100.00;100263.78;31552925;28;20105;-75
2023/01/16 20:03:46;;;;;;;15.20;7.60;;;;;;;3.31;100.00;100255.75;31555956;28;20114;-75
2023/01/16 20:18:47;;;;;;;15.60;8.10;;;;;;;3.26;100.00;100229.25;31538464;28;20090;-76
2023/01/16 20:33:49;;;;;;;11.70;5.80;;;;;;;3.40;100.00;100213.31;31476033;28;20057;-76
2023/01/16 20:48:53;;;;;;;14.43;6.07;;;;;;;3.70;100.00;100219.41;31483645;28;20079;-75
2023/01/16 21:03:55;;;;;;;15.73;7.17;;;;;;;3.90;100.00;100267.53;31489361;28;20535;-76
2023/01/16 21:34:20;;;;;;;13.77;6.63;;;;;;;3.72;100.00;100235.91;31463596;28;20076;-75
2023/01/16 21:49:22;;;;;;;18.60;7.93;;;;;;;3.43;100.00;100255.53;31450850;28;20076;-75
2023/01/16 22:04:24;;;;;;;12.90;5.63;;;;;;;3.23;100.00;100256.81;31446134;28;20076;-75
2023/01/16 22:19:33;;;;;;;12.23;6.27;;;;;;;3.41;100.00;100230.97;31443591;28;22393;-75
2023/01/16 22:34:35;;;;;;;16.20;6.27;;;;;;;3.22;100.00;100220.41;31467205;28;20122;-73
2023/01/16 22:49:38;;;;;;;20.67;7.30;;;;;;;3.09;100.00;100201.84;31453106;28;20460;-75
2023/01/16 23:04:40;;;;;;;13.30;6.70;;;;;;;3.06;100.00;100194.56;31440737;28;20098;-77
2023/01/16 23:19:43;;;;;;;18.87;7.87;;;;;;;2.63;100.00;100173.66;31457332;28;20048;-75
2023/01/16 23:34:45;;;;;;;8.83;5.03;;;;;;;2.60;100.00;100187.81;31448400;28;20049;-76
2023/01/16 23:49:50;;;;;;;16.57;7.27;;;;;;;2.56;100.00;100179.72;31443747;28;20052;-73
